sensor_id;sensor_type;location;lat;lon;timestamp;pressure;altitude;pressure_sealevel;temperature;humidity
28935;BME280;16044;52.726;-2.108;2023-04-05T00:00:36;101265.34;;;9.24;62.67
28935;BME280;16044;52.726;-2.108;2023-04-05T00:03:04;101270.47;;;9.27;62.57
28935;BME280;16044;52.726;-2.108;2023-04-05T00:05:31;101257.38;;;9.22;63.38
28935;BME280;16044;52.726;-2.108;2023-04-05T00:08:00;101254.84;;;9.21;63.19
28935;BME280;16044;52.726;-2.108;2023-04-05T00:10:30;101256.66;;;9.20;63.47
28935;BME280;16044;52.726;-2.108;2023-04-05T00:12:57;101252.41;;;9.17;63.56
28935;BME280;16044;52.726;-2.108;2023-04-05T00:15:26;101245.47;;;9.15;63.37
28935;BME280;16044;52.726;-2.108;2023-04-05T00:17:53;101252.72;;;9.14;63.41
28935;BME280;16044;52.726;-2.108;2023-04-05T00:20:22;101246.91;;;9.09;63.84
28935;BME280;16044;52.726;-2.108;2023-04-05T00:22:49;101250.03;;;9.05;64.66
28935;BME280;16044;52.726;-2.108;2023-04-05T00:25:17;101241.50;;;9.09;64.25
28935;BME280;16044;52.726;-2.108;2023-04-05T00:27:44;101245.47;;;9.05;64.75
28935;BME280;16044;52.726;-2.108;2023-04-05T00:30:11;101233.69;;;9.06;64.57
28935;BME280;16044;52.726;-2.108;2023-04-05T00:32:40;101237.38;;;9.05;64.81
28935;BME280;16044;52.726;-2.108;2023-04-05T00:35:07;101234.97;;;9.02;65.13
28935;BME280;16044;52.726;-2.108;2023-04-05T00:37:34;101240.06;;;9.05;64.96
28935;BME280;16044;52.726;-2.108;2023-04-05T00:40:01;101236.97;;;9.00;65.52
28935;BME280;16044;52.726;-2.108;2023-04-05T00:42:29;101234.97;;;9.02;65.27
28935;BME280;16044;52.726;-2.108;2023-04-05T00:44:56;101237.69;;;9.02;65.37
28935;BME280;16044;52.726;-2.108;2023-04-05T00:47:23;101237.81;;;9.01;65.47
28935;BME280;16044;52.726;-2.108;2023-04-05T00:49:51;101238.81;;;9.00;65.82
28935;BME280;16044;52.726;-2.108;2023-04-05T00:52:18;101237.56;;;8.94;66.13
28935;BME280;16044;52.726;-2.108;2023-04-05T00:54:50;101232.88;;;8.96;66.16
28935;BME280;16044;52.726;-2.108;2023-04-05T00:57:17;101221.31;;;8.94;66.23
28935;BME280;16044;52.726;-2.108;2023-04-05T00:59:44;101227.06;;;8.91;66.65
28935;BME280;16044;52.726;-2.108;2023-04-05T01:02:25;101216.53;;;8.88;67.20
28935;BME280;16044;52.726;-2.108;2023-04-05T01:04:58;101216.09;;;8.92;66.88
28935;BME280;16044;52.726;-2.108;2023-04-05T01:10:39;101209.97;;;8.90;67.21
28935;BME280;16044;52.726;-2.108;2023-04-05T01:13:10;101210.41;;;8.86;67.48
28935;BME280;16044;52.726;-2.108;2023-04-05T01:15:37;101202.59;;;8.83;67.61
28935;BME280;16044;52.726;-2.108;2023-04-05T01:18:04;101201.59;;;8.84;67.81
28935;BME280;16044;52.726;-2.108;2023-04-05T01:20:36;101200.19;;;8.80;67.44
28935;BME280;16044;52.726;-2.108;2023-04-05T01:29:19;101197.84;;;8.57;68.22
28935;BME280;16044;52.726;-2.108;2023-04-05T01:32:10;101199.97;;;8.53;68.17
28935;BME280;16044;52.726;-2.108;2023-04-05T01:34:53;101199.69;;;8.47;68.50
28935;BME280;16044;52.726;-2.108;2023-04-05T01:37:26;101193.00;;;8.41;68.54
28935;BME280;16044;52.726;-2.108;2023-04-05T01:39:58;101193.44;;;8.36;69.08
28935;BME280;16044;52.726;-2.108;2023-04-05T01:42:26;101186.91;;;8.29;70.04
28935;BME280;16044;52.726;-2.108;2023-04-05T01:44:55;101195.72;;;8.31;69.51
28935;BME280;16044;52.726;-2.108;2023-04-05T01:47:23;101194.16;;;8.29;70.23
28935;BME280;16044;52.726;-2.108;2023-04-05T01:49:50;101183.22;;;8.30;70.06
28935;BME280;16044;52.726;-2.108;2023-04-05T01:52:17;101187.75;;;8.30;70.22
28935;BME280;16044;52.726;-2.108;2023-04-05T01:54:44;101193.47;;;8.27;70.52
28935;BME280;16044;52.726;-2.108;2023-04-05T01:57:11;101186.06;;;8.29;70.36
28935;BME280;16044;52.726;-2.108;2023-04-05T01:59:38;101179.25;;;8.25;71.20
28935;BME280;16044;52.726;-2.108;2023-04-05T02:02:05;101179.41;;;8.23;71.18
28935;BME280;16044;52.726;-2.108;2023-04-05T02:04:32;101181.66;;;8.18;72.03
28935;BME280;16044;52.726;-2.108;2023-04-05T02:06:59;101177.16;;;8.18;72.15
28935;BME280;16044;52.726;-2.108;2023-04-05T02:09:26;101185.06;;;8.20;71.89
28935;BME280;16044;52.726;-2.108;2023-04-05T02:11:53;101175.16;;;8.20;71.88
28935;BME280;16044;52.726;-2.108;2023-04-05T02:14:23;101169.19;;;8.17;72.03
28935;BME280;16044;52.726;-2.108;2023-04-05T02:16:50;101165.78;;;8.15;72.72
28935;BME280;16044;52.726;-2.108;2023-04-05T02:19:22;101171.19;;;8.15;72.57
28935;BME280;16044;52.726;-2.108;2023-04-05T02:21:49;101162.19;;;8.14;72.53
28935;BME280;16044;52.726;-2.108;2023-04-05T02:24:18;101152.69;;;8.10;73.04
28935;BME280;16044;52.726;-2.108;2023-04-05T02:26:46;101158.09;;;8.10;73.17
28935;BME280;16044;52.726;-2.108;2023-04-05T02:29:13;101143.31;;;8.05;73.69
28935;BME280;16044;52.726;-2.108;2023-04-05T02:31:40;101145.44;;;8.01;73.90
28935;BME280;16044;52.726;-2.108;2023-04-05T02:34:07;101147.31;;;8.00;73.75
28935;BME280;16044;52.726;-2.108;2023-04-05T02:36:37;101150.44;;;7.96;74.38
28935;BME280;16044;52.726;-2.108;2023-04-05T02:39:04;101137.38;;;7.91;74.38
28935;BME280;16044;52.726;-2.108;2023-04-05T02:41:31;101133.13;;;7.89;74.25
28935;BME280;16044;52.726;-2.108;2023-04-05T02:43:58;101135.09;;;7.87;74.23
28935;BME280;16044;52.726;-2.108;2023-04-05T02:46:25;101130.25;;;7.80;74.88
28935;BME280;16044;52.726;-2.108;2023-04-05T02:48:52;101127.72;;;7.79;75.18
28935;BME280;16044;52.726;-2.108;2023-04-05T02:51:19;101131.13;;;7.81;75.17
28935;BME280;16044;52.726;-2.108;2023-04-05T02:53:46;101122.91;;;7.83;75.16
28935;BME280;16044;52.726;-2.108;2023-04-05T02:56:13;101127.56;;;7.80;75.42
28935;BME280;16044;52.726;-2.108;2023-04-05T02:58:40;101118.94;;;7.77;76.78
28935;BME280;16044;52.726;-2.108;2023-04-05T03:01:07;101112.25;;;7.81;75.94
28935;BME280;16044;52.726;-2.108;2023-04-05T03:03:35;101110.13;;;7.85;76.14
28935;BME280;16044;52.726;-2.108;2023-04-05T03:06:04;101118.34;;;7.83;76.68
28935;BME280;16044;52.726;-2.108;2023-04-05T03:08:41;101116.34;;;7.85;76.90
28935;BME280;16044;52.726;-2.108;2023-04-05T03:11:14;101115.66;;;7.83;77.50
28935;BME280;16044;52.726;-2.108;2023-04-05T03:13:41;101114.38;;;7.87;76.89
28935;BME280;16044;52.726;-2.108;2023-04-05T03:16:08;101112.38;;;7.89;77.08
28935;BME280;16044;52.726;-2.108;2023-04-05T03:18:35;101118.03;;;7.86;77.68
28935;BME280;16044;52.726;-2.108;2023-04-05T03:21:02;101109.25;;;7.84;77.66
28935;BME280;16044;52.726;-2.108;2023-04-05T03:23:30;101114.25;;;7.79;78.52
28935;BME280;16044;52.726;-2.108;2023-04-05T03:26:02;101110.84;;;7.77;78.17
28935;BME280;16044;52.726;-2.108;2023-04-05T03:28:30;101108.53;;;7.72;78.88
28935;BME280;16044;52.726;-2.108;2023-04-05T03:30:59;101109.56;;;7.71;78.56
28935;BME280;16044;52.726;-2.108;2023-04-05T03:33:26;101114.38;;;7.68;78.74
28935;BME280;16044;52.726;-2.108;2023-04-05T03:35:53;101100.47;;;7.53;80.77
28935;BME280;16044;52.726;-2.108;2023-04-05T03:38:20;101101.59;;;7.60;79.00
28935;BME280;16044;52.726;-2.108;2023-04-05T03:40:47;101103.03;;;7.54;79.46
28935;BME280;16044;52.726;-2.108;2023-04-05T03:43:14;101095.22;;;7.51;79.39
28935;BME280;16044;52.726;-2.108;2023-04-05T03:45:42;101092.06;;;7.46;79.87
28935;BME280;16044;52.726;-2.108;2023-04-05T03:48:09;101095.06;;;7.43;80.26
28935;BME280;16044;52.726;-2.108;2023-04-05T03:50:36;101094.19;;;7.42;80.20
28935;BME280;16044;52.726;-2.108;2023-04-05T03:53:03;101084.56;;;7.40;80.49
28935;BME280;16044;52.726;-2.108;2023-04-05T03:55:30;101083.56;;;7.41;80.84
28935;BME280;16044;52.726;-2.108;2023-04-05T03:57:57;101080.31;;;7.37;81.41
28935;BME280;16044;52.726;-2.108;2023-04-05T04:00:24;101079.44;;;7.37;81.44
28935;BME280;16044;52.726;-2.108;2023-04-05T04:02:51;101072.34;;;7.36;82.15
28935;BME280;16044;52.726;-2.108;2023-04-05T04:05:19;101083.41;;;7.33;82.50
28935;BME280;16044;52.726;-2.108;2023-04-05T04:07:47;101076.34;;;7.32;82.62
28935;BME280;16044;52.726;-2.108;2023-04-05T04:10:15;101070.22;;;7.30;83.17
28935;BME280;16044;52.726;-2.108;2023-04-05T04:12:45;101072.75;;;7.31;82.83
28935;BME280;16044;52.726;-2.108;2023-04-05T04:15:12;101063.00;;;7.30;82.97
28935;BME280;16044;52.726;-2.108;2023-04-05T04:17:39;101072.34;;;7.26;83.95
28935;BME280;16044;52.726;-2.108;2023-04-05T04:20:07;101074.19;;;7.26;84.07
28935;BME280;16044;52.726;-2.108;2023-04-05T04:22:37;101070.22;;;7.30;83.32
28935;BME280;16044;52.726;-2.108;2023-04-05T04:25:07;101065.09;;;7.27;84.72
28935;BME280;16044;52.726;-2.108;2023-04-05T04:27:38;101060.28;;;7.30;84.27
28935;BME280;16044;52.726;-2.108;2023-04-05T04:30:12;101066.38;;;7.22;85.76
28935;BME280;16044;52.726;-2.108;2023-04-05T04:32:41;101073.06;;;7.28;85.64
28935;BME280;16044;52.726;-2.108;2023-04-05T04:35:19;101064.09;;;7.28;85.41
28935;BME280;16044;52.726;-2.108;2023-04-05T04:38:02;101064.09;;;7.28;85.75
28935;BME280;16044;52.726;-2.108;2023-04-05T04:40:37;101065.94;;;7.27;85.94
28935;BME280;16044;52.726;-2.108;2023-04-05T04:43:08;101067.09;;;7.25;86.60
28935;BME280;16044;52.726;-2.108;2023-04-05T04:45:40;101063.13;;;7.29;86.22
28935;BME280;16044;52.726;-2.108;2023-04-05T04:48:07;101060.00;;;7.23;86.57
28935;BME280;16044;52.726;-2.108;2023-04-05T04:50:35;101055.88;;;7.29;86.31
28935;BME280;16044;52.726;-2.108;2023-04-05T04:53:03;101051.34;;;7.30;86.66
28935;BME280;16044;52.726;-2.108;2023-04-05T04:55:30;101055.03;;;7.29;87.12
28935;BME280;16044;52.726;-2.108;2023-04-05T04:57:59;101049.63;;;7.29;87.31
28935;BME280;16044;52.726;-2.108;2023-04-05T05:00:26;101040.41;;;7.31;87.23
28935;BME280;16044;52.726;-2.108;2023-04-05T05:02:54;101047.66;;;7.31;86.93
28935;BME280;16044;52.726;-2.108;2023-04-05T05:05:21;101047.50;;;7.32;86.88
28935;BME280;16044;52.726;-2.108;2023-04-05T05:07:49;101045.66;;;7.33;87.08
28935;BME280;16044;52.726;-2.108;2023-04-05T05:10:19;101045.66;;;7.33;87.08
28935;BME280;16044;52.726;-2.108;2023-04-05T05:12:46;101048.22;;;7.34;87.17
28935;BME280;16044;52.726;-2.108;2023-04-05T05:15:14;101043.41;;;7.38;87.39
28935;BME280;16044;52.726;-2.108;2023-04-05T05:17:41;101040.13;;;7.34;87.71
28935;BME280;16044;52.726;-2.108;2023-04-05T05:20:09;101033.44;;;7.38;87.46
28935;BME280;16044;52.726;-2.108;2023-04-05T05:22:37;101032.75;;;7.36;87.80
28935;BME280;16044;52.726;-2.108;2023-04-05T05:25:06;101029.22;;;7.36;88.10
28935;BME280;16044;52.726;-2.108;2023-04-05T05:27:34;101024.78;;;7.35;88.43
28935;BME280;16044;52.726;-2.108;2023-04-05T05:30:02;101026.38;;;7.37;88.45
28935;BME280;16044;52.726;-2.108;2023-04-05T05:32:30;101020.66;;;7.40;88.31
28935;BME280;16044;52.726;-2.108;2023-04-05T05:34:57;101023.38;;;7.40;88.46
28935;BME280;16044;52.726;-2.108;2023-04-05T05:37:31;101020.66;;;7.40;88.52
28935;BME280;16044;52.726;-2.108;2023-04-05T05:39:58;101015.41;;;7.39;89.17
28935;BME280;16044;52.726;-2.108;2023-04-05T05:42:26;101017.56;;;7.45;88.64
28935;BME280;16044;52.726;-2.108;2023-04-05T05:44:53;101025.78;;;7.44;88.70
28935;BME280;16044;52.726;-2.108;2023-04-05T05:47:20;101024.78;;;7.45;88.92
28935;BME280;16044;52.726;-2.108;2023-04-05T05:49:47;101022.53;;;7.40;89.78
28935;BME280;16044;52.726;-2.108;2023-04-05T05:52:15;101024.94;;;7.43;89.84
28935;BME280;16044;52.726;-2.108;2023-04-05T05:54:42;101023.66;;;7.47;89.60
28935;BME280;16044;52.726;-2.108;2023-04-05T05:57:09;101021.94;;;7.46;89.95
28935;BME280;16044;52.726;-2.108;2023-04-05T05:59:36;101021.81;;;7.48;90.05
28935;BME280;16044;52.726;-2.108;2023-04-05T06:02:04;101024.22;;;7.51;89.47
28935;BME280;16044;52.726;-2.108;2023-04-05T06:04:31;101018.66;;;7.52;89.55
28935;BME280;16044;52.726;-2.108;2023-04-05T06:06:59;101011.31;;;7.54;89.20
28935;BME280;16044;52.726;-2.108;2023-04-05T06:09:27;101014.00;;;7.54;89.26
28935;BME280;16044;52.726;-2.108;2023-04-05T06:11:54;101023.50;;;7.58;89.84
28935;BME280;16044;52.726;-2.108;2023-04-05T06:14:23;101020.66;;;7.60;89.40
28935;BME280;16044;52.726;-2.108;2023-04-05T06:16:51;101017.09;;;7.59;89.85
28935;BME280;16044;52.726;-2.108;2023-04-05T06:19:21;101015.81;;;7.64;89.67
28935;BME280;16044;52.726;-2.108;2023-04-05T06:21:48;101019.25;;;7.66;89.65
28935;BME280;16044;52.726;-2.108;2023-04-05T06:24:15;101013.53;;;7.69;89.61
28935;BME280;16044;52.726;-2.108;2023-04-05T06:26:42;101013.28;;;7.62;90.85
28935;BME280;16044;52.726;-2.108;2023-04-05T06:29:09;101015.97;;;7.72;89.83
28935;BME280;16044;52.726;-2.108;2023-04-05T06:31:36;101003.88;;;7.76;89.94
28935;BME280;16044;52.726;-2.108;2023-04-05T06:34:03;101011.25;;;7.74;90.58
28935;BME280;16044;52.726;-2.108;2023-04-05T06:36:31;101012.81;;;7.76;90.28
28935;BME280;16044;52.726;-2.108;2023-04-05T06:39:00;101001.72;;;7.79;90.74
28935;BME280;16044;52.726;-2.108;2023-04-05T06:41:27;101007.28;;;7.78;91.07
28935;BME280;16044;52.726;-2.108;2023-04-05T06:43:54;100998.91;;;7.81;90.86
28935;BME280;16044;52.726;-2.108;2023-04-05T06:46:22;101011.81;;;7.77;92.00
28935;BME280;16044;52.726;-2.108;2023-04-05T06:48:51;101013.09;;;7.83;91.64
28935;BME280;16044;52.726;-2.108;2023-04-05T06:51:18;101015.78;;;7.83;91.55
28935;BME280;16044;52.726;-2.108;2023-04-05T06:53:46;101011.78;;;7.87;91.41
28935;BME280;16044;52.726;-2.108;2023-04-05T06:56:13;101017.47;;;7.84;92.25
28935;BME280;16044;52.726;-2.108;2023-04-05T06:58:40;101004.41;;;7.89;91.87
28935;BME280;16044;52.726;-2.108;2023-04-05T07:01:07;101008.66;;;7.92;91.98
28935;BME280;16044;52.726;-2.108;2023-04-05T07:03:34;101008.13;;;7.88;92.29
28935;BME280;16044;52.726;-2.108;2023-04-05T07:06:01;101009.53;;;7.92;92.29
28935;BME280;16044;52.726;-2.108;2023-04-05T07:08:31;101008.38;;;7.95;92.28
28935;BME280;16044;52.726;-2.108;2023-04-05T07:10:59;101022.28;;;8.00;92.48
28935;BME280;16044;52.726;-2.108;2023-04-05T07:13:26;101008.94;;;7.98;92.83
28935;BME280;16044;52.726;-2.108;2023-04-05T07:16:00;101010.59;;;7.99;92.83
28935;BME280;16044;52.726;-2.108;2023-04-05T07:18:28;101007.53;;;7.94;93.79
28935;BME280;16044;52.726;-2.108;2023-04-05T07:20:57;101013.47;;;7.98;93.64
28935;BME280;16044;52.726;-2.108;2023-04-05T07:23:30;101011.47;;;8.00;93.82
28935;BME280;16044;52.726;-2.108;2023-04-05T07:26:01;101008.78;;;8.00;94.23
28935;BME280;16044;52.726;-2.108;2023-04-05T07:28:33;101009.34;;;8.04;94.15
28935;BME280;16044;52.726;-2.108;2023-04-05T07:31:02;101007.91;;;7.99;95.03
28935;BME280;16044;52.726;-2.108;2023-04-05T07:33:31;101001.25;;;8.04;94.98
28935;BME280;16044;52.726;-2.108;2023-04-05T07:35:58;101002.50;;;7.99;95.95
28935;BME280;16044;52.726;-2.108;2023-04-05T07:38:26;101001.53;;;8.00;95.65
28935;BME280;16044;52.726;-2.108;2023-04-05T07:40:54;100999.53;;;8.03;95.71
28935;BME280;16044;52.726;-2.108;2023-04-05T07:43:21;100994.41;;;7.99;96.55
28935;BME280;16044;52.726;-2.108;2023-04-05T07:45:51;100994.13;;;8.03;96.46
28935;BME280;16044;52.726;-2.108;2023-04-05T07:48:19;100992.72;;;7.98;97.28
28935;BME280;16044;52.726;-2.108;2023-04-05T07:50:47;100991.44;;;8.03;97.19
28935;BME280;16044;52.726;-2.108;2023-04-05T07:53:14;100988.59;;;8.04;97.15
28935;BME280;16044;52.726;-2.108;2023-04-05T07:55:41;100990.72;;;8.00;97.80
28935;BME280;16044;52.726;-2.108;2023-04-05T07:58:08;100987.97;;;8.10;97.51
28935;BME280;16044;52.726;-2.108;2023-04-05T08:00:36;100994.41;;;8.09;98.23
28935;BME280;16044;52.726;-2.108;2023-04-05T08:03:05;100988.69;;;8.12;98.09
28935;BME280;16044;52.726;-2.108;2023-04-05T08:05:32;100990.97;;;8.17;98.21
28935;BME280;16044;52.726;-2.108;2023-04-05T08:07:59;100992.91;;;8.25;98.29
28935;BME280;16044;52.726;-2.108;2023-04-05T08:10:27;100987.03;;;8.29;98.48
28935;BME280;16044;52.726;-2.108;2023-04-05T08:12:53;100990.84;;;8.36;98.55
28935;BME280;16044;52.726;-2.108;2023-04-05T08:15:21;100982.19;;;8.43;98.53
28935;BME280;16044;52.726;-2.108;2023-04-05T08:17:48;100985.97;;;8.50;98.53
28935;BME280;16044;52.726;-2.108;2023-04-05T08:20:15;100977.13;;;8.57;98.59
28935;BME280;16044;52.726;-2.108;2023-04-05T08:22:42;100979.53;;;8.61;98.58
28935;BME280;16044;52.726;-2.108;2023-04-05T08:25:09;100978.50;;;8.62;98.81
28935;BME280;16044;52.726;-2.108;2023-04-05T08:27:36;100969.97;;;8.66;98.95
28935;BME280;16044;52.726;-2.108;2023-04-05T08:30:03;100982.38;;;8.77;98.38
28935;BME280;16044;52.726;-2.108;2023-04-05T08:32:31;100978.97;;;8.75;98.21
28935;BME280;16044;52.726;-2.108;2023-04-05T08:34:58;100977.22;;;8.84;98.23
28935;BME280;16044;52.726;-2.108;2023-04-05T08:37:25;100973.84;;;8.82;98.43
28935;BME280;16044;52.726;-2.108;2023-04-05T08:39:53;100971.53;;;8.87;98.15
28935;BME280;16044;52.726;-2.108;2023-04-05T08:42:35;100964.94;;;8.89;98.09
28935;BME280;16044;52.726;-2.108;2023-04-05T08:45:04;100966.66;;;8.90;97.47
28935;BME280;16044;52.726;-2.108;2023-04-05T08:47:35;100977.47;;;8.90;97.84
28935;BME280;16044;52.726;-2.108;2023-04-05T08:50:05;100971.75;;;8.75;98.32
28935;BME280;16044;52.726;-2.108;2023-04-05T08:52:34;100966.03;;;8.78;98.56
28935;BME280;16044;52.726;-2.108;2023-04-05T08:55:05;100959.84;;;8.86;98.41
28935;BME280;16044;52.726;-2.108;2023-04-05T08:57:33;100969.53;;;8.89;98.58
28935;BME280;16044;52.726;-2.108;2023-04-05T09:00:05;100964.81;;;8.91;98.40
28935;BME280;16044;52.726;-2.108;2023-04-05T09:02:35;100970.50;;;8.88;98.97
28935;BME280;16044;52.726;-2.108;2023-04-05T09:05:07;100970.06;;;8.92;98.43
28935;BME280;16044;52.726;-2.108;2023-04-05T09:07:35;100968.19;;;8.93;98.57
28935;BME280;16044;52.726;-2.108;2023-04-05T09:10:05;100959.41;;;8.91;98.93
28935;BME280;16044;52.726;-2.108;2023-04-05T09:12:34;100961.78;;;8.94;98.87
28935;BME280;16044;52.726;-2.108;2023-04-05T09:15:02;100960.38;;;8.90;99.22
28935;BME280;16044;52.726;-2.108;2023-04-05T09:17:29;100963.78;;;8.92;98.75
28935;BME280;16044;52.726;-2.108;2023-04-05T09:20:00;100957.25;;;8.94;98.65
28935;BME280;16044;52.726;-2.108;2023-04-05T09:22:27;100959.47;;;8.99;99.08
28935;BME280;16044;52.726;-2.108;2023-04-05T09:24:54;100958.63;;;8.98;99.17
28935;BME280;16044;52.726;-2.108;2023-04-05T09:27:22;100961.19;;;9.00;99.13
28935;BME280;16044;52.726;-2.108;2023-04-05T09:29:49;100952.03;;;9.01;99.07
28935;BME280;16044;52.726;-2.108;2023-04-05T09:32:16;100957.84;;;9.06;99.27
28935;BME280;16044;52.726;-2.108;2023-04-05T09:34:46;100952.03;;;9.01;100.00
28935;BME280;16044;52.726;-2.108;2023-04-05T09:37:19;100951.94;;;9.11;99.38
28935;BME280;16044;52.726;-2.108;2023-04-05T09:39:48;100957.59;;;9.17;99.68
28935;BME280;16044;52.726;-2.108;2023-04-05T09:42:19;100949.88;;;9.23;100.00
28935;BME280;16044;52.726;-2.108;2023-04-05T09:45:07;100954.28;;;9.24;100.00
28935;BME280;16044;52.726;-2.108;2023-04-05T09:47:34;100951.47;;;9.33;99.68
28935;BME280;16044;52.726;-2.108;2023-04-05T09:52:41;100948.16;;;9.40;99.25
28935;BME280;16044;52.726;-2.108;2023-04-05T09:55:10;100947.38;;;9.47;99.03
28935;BME280;16044;52.726;-2.108;2023-04-05T09:57:38;100946.88;;;9.52;99.19
28935;BME280;16044;52.726;-2.108;2023-04-05T10:00:17;100942.16;;;9.54;98.85
28935;BME280;16044;52.726;-2.108;2023-04-05T10:02:51;100943.00;;;9.54;98.87
28935;BME280;16044;52.726;-2.108;2023-04-05T10:05:23;100944.06;;;9.62;98.61
28935;BME280;16044;52.726;-2.108;2023-04-05T10:07:56;100942.41;;;9.69;98.30
28935;BME280;16044;52.726;-2.108;2023-04-05T10:10:24;100943.31;;;9.78;98.39
28935;BME280;16044;52.726;-2.108;2023-04-05T10:12:52;100939.72;;;9.69;98.32
28935;BME280;16044;52.726;-2.108;2023-04-05T10:15:21;100951.75;;;9.74;98.33
28935;BME280;16044;52.726;-2.108;2023-04-05T10:17:52;100942.69;;;9.84;98.09
28935;BME280;16044;52.726;-2.108;2023-04-05T10:20:27;100945.38;;;9.84;98.29
28935;BME280;16044;52.726;-2.108;2023-04-05T10:31:24;100941.50;;;9.86;98.52
28935;BME280;16044;52.726;-2.108;2023-04-05T10:34:09;100943.84;;;9.81;98.36
28935;BME280;16044;52.726;-2.108;2023-04-05T10:39:33;100935.94;;;9.96;99.74
28935;BME280;16044;52.726;-2.108;2023-04-05T10:42:12;100930.09;;;10.09;99.51
28935;BME280;16044;52.726;-2.108;2023-04-05T10:44:50;100925.72;;;10.16;98.81
28935;BME280;16044;52.726;-2.108;2023-04-05T10:47:22;100924.72;;;10.17;98.18
28935;BME280;16044;52.726;-2.108;2023-04-05T10:49:52;100926.41;;;10.18;97.35
28935;BME280;16044;52.726;-2.108;2023-04-05T10:52:23;100924.38;;;10.12;97.42
28935;BME280;16044;52.726;-2.108;2023-04-05T10:54:51;100924.38;;;10.12;97.92
28935;BME280;16044;52.726;-2.108;2023-04-05T10:57:19;100925.34;;;10.11;97.97
28935;BME280;16044;52.726;-2.108;2023-04-05T10:59:47;100923.19;;;10.14;98.08
28935;BME280;16044;52.726;-2.108;2023-04-05T11:02:15;100911.69;;;10.21;98.25
28935;BME280;16044;52.726;-2.108;2023-04-05T11:04:42;100915.72;;;10.17;98.56
28935;BME280;16044;52.726;-2.108;2023-04-05T11:07:14;100920.53;;;10.23;98.14
28935;BME280;16044;52.726;-2.108;2023-04-05T11:10:02;100911.88;;;10.19;98.05
28935;BME280;16044;52.726;-2.108;2023-04-05T11:18:05;100910.66;;;10.13;98.86
28935;BME280;16044;52.726;-2.108;2023-04-05T11:20:46;100914.19;;;10.06;99.86
28935;BME280;16044;52.726;-2.108;2023-04-05T11:23:23;100910.59;;;10.05;99.93
28935;BME280;16044;52.726;-2.108;2023-04-05T11:25:53;100901.50;;;10.14;100.00
28935;BME280;16044;52.726;-2.108;2023-04-05T11:28:35;100908.13;;;10.12;100.00
28935;BME280;16044;52.726;-2.108;2023-04-05T11:31:17;100906.44;;;10.19;100.00
28935;BME280;16044;52.726;-2.108;2023-04-05T11:44:39;100896.34;;;10.38;100.00
28935;BME280;16044;52.726;-2.108;2023-04-05T11:47:11;100897.38;;;10.45;100.00
28935;BME280;16044;52.726;-2.108;2023-04-05T11:49:39;100891.28;;;10.43;100.00
28935;BME280;16044;52.726;-2.108;2023-04-05T11:52:16;100890.97;;;10.46;100.00
28935;BME280;16044;52.726;-2.108;2023-04-05T11:54:45;100893.69;;;10.46;100.00
28935;BME280;16044;52.726;-2.108;2023-04-05T11:57:14;100885.41;;;10.47;100.00
28935;BME280;16044;52.726;-2.108;2023-04-05T11:59:45;100883.69;;;10.54;100.00
28935;BME280;16044;52.726;-2.108;2023-04-05T12:02:12;100885.56;;;10.62;100.00
28935;BME280;16044;52.726;-2.108;2023-04-05T12:04:39;100876.44;;;10.63;100.00
28935;BME280;16044;52.726;-2.108;2023-04-05T12:07:14;100882.84;;;10.62;100.00
28935;BME280;16044;52.726;-2.108;2023-04-05T12:10:04;100877.63;;;10.69;100.00
28935;BME280;16044;52.726;-2.108;2023-04-05T12:12:38;100881.53;;;10.75;100.00
28935;BME280;16044;52.726;-2.108;2023-04-05T12:15:08;100876.94;;;10.75;100.00
28935;BME280;16044;52.726;-2.108;2023-04-05T12:17:38;100879.50;;;10.77;99.92
28935;BME280;16044;52.726;-2.108;2023-04-05T12:20:18;100868.13;;;10.73;100.00
28935;BME280;16044;52.726;-2.108;2023-04-05T12:22:54;100871.88;;;10.72;100.00
28935;BME280;16044;52.726;-2.108;2023-04-05T12:25:22;100864.59;;;10.64;100.00
28935;BME280;16044;52.726;-2.108;2023-04-05T12:27:50;100862.72;;;10.65;99.60
28935;BME280;16044;52.726;-2.108;2023-04-05T12:30:19;100865.25;;;10.66;99.60
28935;BME280;16044;52.726;-2.108;2023-04-05T12:32:52;100868.63;;;10.60;100.00
28935;BME280;16044;52.726;-2.108;2023-04-05T12:35:22;100862.69;;;10.57;99.68
28935;BME280;16044;52.726;-2.108;2023-04-05T12:37:52;100863.19;;;10.60;99.46
28935;BME280;16044;52.726;-2.108;2023-04-05T12:40:24;100859.66;;;10.51;99.86
28935;BME280;16044;52.726;-2.108;2023-04-05T12:42:51;100862.69;;;10.48;100.00
28935;BME280;16044;52.726;-2.108;2023-04-05T12:45:22;100855.06;;;10.52;100.00
28935;BME280;16044;52.726;-2.108;2023-04-05T12:47:59;100847.09;;;10.50;100.00
28935;BME280;16044;52.726;-2.108;2023-04-05T12:50:28;100853.50;;;10.41;100.00
28935;BME280;16044;52.726;-2.108;2023-04-05T12:52:57;100847.78;;;10.44;100.00
28935;BME280;16044;52.726;-2.108;2023-04-05T12:55:27;100848.59;;;10.45;100.00
28935;BME280;16044;52.726;-2.108;2023-04-05T12:57:59;100851.63;;;10.33;100.00
28935;BME280;16044;52.726;-2.108;2023-04-05T13:00:28;100843.19;;;10.45;100.00
28935;BME280;16044;52.726;-2.108;2023-04-05T13:02:57;100847.97;;;10.51;100.00
28935;BME280;16044;52.726;-2.108;2023-04-05T13:05:27;100845.41;;;10.49;100.00
28935;BME280;16044;52.726;-2.108;2023-04-05T13:07:56;100839.63;;;10.52;100.00
28935;BME280;16044;52.726;-2.108;2023-04-05T13:10:24;100841.50;;;10.52;100.00
28935;BME280;16044;52.726;-2.108;2023-04-05T13:12:51;100841.50;;;10.52;100.00
28935;BME280;16044;52.726;-2.108;2023-04-05T13:15:19;100845.94;;;10.53;100.00
28935;BME280;16044;52.726;-2.108;2023-04-05T13:17:46;100839.31;;;10.56;100.00
28935;BME280;16044;52.726;-2.108;2023-04-05T13:20:16;100839.13;;;10.49;100.00
28935;BME280;16044;52.726;-2.108;2023-04-05T13:22:44;100835.09;;;10.53;100.00
28935;BME280;16044;52.726;-2.108;2023-04-05T13:25:13;100835.75;;;10.47;100.00
28935;BME280;16044;52.726;-2.108;2023-04-05T13:27:40;100833.72;;;10.49;100.00
28935;BME280;16044;52.726;-2.108;2023-04-05T13:30:07;100837.44;;;10.56;100.00
28935;BME280;16044;52.726;-2.108;2023-04-05T13:32:35;100827.97;;;10.52;100.00
28935;BME280;16044;52.726;-2.108;2023-04-05T13:35:02;100824.06;;;10.54;100.00